Time;durP1;ratioP1;P1;durP2;ratioP2;P2;SDS_P1;SDS_P2;PMS_P1;PMS_P2;Temp;Humidity;BMP_temperature;BMP_pressure;BME280_temperature;BME280_humidity;BME280_pressure;Samples;Min_cycle;Max_cycle;Signal;HPM_P1;HPM_P2
2021/08/24 00:01:58;;;;;;;2.63;1.60;;;14.70;99.90;;;;;;4982975;28;20179;-79
2021/08/24 00:04:23;;;;;;;1.93;1.30;;;14.70;99.90;;;;;;4999352;28;20610;-79
2021/08/24 00:06:49;;;;;;;2.40;1.70;;;14.70;99.90;;;;;;4982691;28;20215;-80
2021/08/24 00:09:14;;;;;;;2.10;1.70;;;14.70;99.90;;;;;;4999498;28;20199;-79
2021/08/24 00:11:40;;;;;;;2.20;1.53;;;14.60;99.90;;;;;;4983307;28;20176;-80
2021/08/24 00:14:06;;;;;;;2.37;1.50;;;14.60;99.90;;;;;;4983461;28;20263;-79
2021/08/24 00:16:32;;;;;;;1.90;1.40;;;14.50;99.90;;;;;;5015541;28;20639;-80
2021/08/24 00:18:57;;;;;;;2.53;1.70;;;14.50;99.90;;;;;;4983281;28;20222;-80
2021/08/24 00:21:23;;;;;;;2.83;1.63;;;14.40;99.90;;;;;;4983441;28;20191;-80
2021/08/24 00:23:49;;;;;;;2.87;1.90;;;14.50;99.90;;;;;;4983169;28;20186;-79
2021/08/24 00:26:14;;;;;;;5.13;1.80;;;14.40;99.90;;;;;;4999045;28;20211;-79
2021/08/24 00:28:40;;;;;;;3.13;1.60;;;14.30;99.90;;;;;;4998289;28;20230;-79
2021/08/24 00:31:05;;;;;;;2.73;2.00;;;14.30;99.90;;;;;;4998428;28;20179;-79
2021/08/24 00:33:31;;;;;;;1.93;1.73;;;14.30;99.90;;;;;;4981966;28;20179;-79
2021/08/24 00:35:56;;;;;;;2.60;2.03;;;14.30;99.90;;;;;;4998319;28;20176;-79
2021/08/24 00:38:24;;;;;;;3.57;2.37;;;14.20;99.90;;;;;;5014626;28;20195;-79
2021/08/24 00:40:54;;;;;;;2.73;1.90;;;14.20;99.90;;;;;;4998040;28;20171;-79
2021/08/24 00:43:20;;;;;;;2.27;1.97;;;14.20;99.90;;;;;;4983137;28;20206;-79
2021/08/24 00:45:46;;;;;;;4.00;1.80;;;14.10;99.90;;;;;;4999088;28;20223;-79
2021/08/24 00:48:12;;;;;;;2.83;2.10;;;14.20;99.90;;;;;;4982209;28;20203;-78
2021/08/24 00:50:39;;;;;;;2.83;2.33;;;14.10;99.90;;;;;;4998118;28;20183;-79
2021/08/24 00:53:06;;;;;;;2.30;1.90;;;14.10;99.90;;;;;;4996950;28;20187;-79
2021/08/24 00:55:32;;;;;;;2.20;2.00;;;14.10;99.90;;;;;;4999022;28;20202;-80
2021/08/24 00:58:03;;;;;;;2.87;2.20;;;14.10;99.90;;;;;;5003032;28;20258;-79
2021/08/24 01:00:29;;;;;;;3.13;2.10;;;14.10;99.90;;;;;;4998722;28;20270;-79
2021/08/24 01:02:57;;;;;;;2.90;2.33;;;14.10;99.90;;;;;;4982181;28;20192;-79
2021/08/24 01:05:22;;;;;;;3.63;2.20;;;14.20;99.90;;;;;;4982397;28;20659;-79
2021/08/24 01:08:08;;;;;;;3.60;2.00;;;14.20;99.90;;;;;;4981857;28;20215;-79
2021/08/24 01:10:41;;;;;;;2.83;2.30;;;14.20;99.90;;;;;;4998627;28;20190;-79
2021/08/24 01:13:08;;;;;;;2.70;2.30;;;14.20;99.90;;;;;;4998634;28;20525;-79
2021/08/24 01:15:50;;;;;;;2.77;2.23;;;14.20;99.90;;;;;;5014607;28;20184;-79
2021/08/24 01:18:33;;;;;;;3.43;2.10;;;14.20;99.90;;;;;;4999637;28;20211;-79
2021/08/24 01:21:28;;;;;;;3.03;2.50;;;14.20;99.90;;;;;;5000286;28;20172;-79
2021/08/24 01:23:58;;;;;;;3.40;2.20;;;14.10;99.90;;;;;;4978089;28;20197;-79
2021/08/24 01:27:13;;;;;;;3.73;2.80;;;14.10;99.90;;;;;;4997666;28;20222;-79
2021/08/24 01:30:02;;;;;;;4.53;2.90;;;14.00;99.90;;;;;;4971429;28;20400;-79
2021/08/24 01:32:36;;;;;;;2.33;2.13;;;14.00;99.90;;;;;;4997721;28;20176;-79
2021/08/24 01:35:08;;;;;;;5.83;2.90;;;14.00;99.90;;;;;;5013934;28;20225;-79
2021/08/24 01:37:57;;;;;;;2.97;2.33;;;14.00;99.90;;;;;;5013853;28;20210;-79
2021/08/24 01:40:43;;;;;;;3.63;2.73;;;14.00;99.90;;;;;;5014873;28;20306;-80
2021/08/24 01:43:09;;;;;;;4.97;2.77;;;14.00;99.90;;;;;;4982474;28;20176;-79
2021/08/24 01:45:38;;;;;;;4.43;2.80;;;13.90;99.90;;;;;;4980631;28;20662;-79
2021/08/24 01:48:07;;;;;;;3.27;2.73;;;13.90;99.90;;;;;;4981085;28;20266;-79
2021/08/24 01:50:43;;;;;;;4.07;2.80;;;13.90;99.90;;;;;;4997642;28;20176;-80
2021/08/24 01:53:29;;;;;;;3.03;2.73;;;13.90;99.90;;;;;;4981035;28;20257;-79
2021/08/24 01:56:02;;;;;;;3.40;2.80;;;13.90;99.90;;;;;;5013700;28;20194;-79
2021/08/24 01:58:43;;;;;;;4.07;2.90;;;13.80;99.90;;;;;;4997842;28;20589;-80
2021/08/24 02:01:10;;;;;;;4.73;2.97;;;13.80;99.90;;;;;;4997214;28;20203;-80
2021/08/24 02:03:37;;;;;;;4.23;3.20;;;13.80;99.90;;;;;;4996686;28;20176;-79
2021/08/24 02:06:22;;;;;;;3.10;2.80;;;13.80;99.90;;;;;;4996932;28;20233;-79
2021/08/24 02:08:49;;;;;;;4.20;2.90;;;13.80;99.90;;;;;;4998078;28;20199;-79
2021/08/24 02:11:15;;;;;;;4.63;3.33;;;13.70;99.90;;;;;;4980983;28;20179;-80
2021/08/24 02:13:44;;;;;;;3.93;2.97;;;13.70;99.90;;;;;;4997075;28;20687;-79
2021/08/24 02:16:12;;;;;;;3.83;2.90;;;13.70;99.90;;;;;;4980518;28;20219;-79
2021/08/24 02:18:38;;;;;;;3.77;3.23;;;13.80;99.90;;;;;;4996403;28;20309;-79
2021/08/24 02:21:19;;;;;;;5.07;3.40;;;13.70;99.90;;;;;;4980463;28;20187;-80
2021/08/24 02:23:46;;;;;;;4.43;3.13;;;13.70;99.90;;;;;;4980795;28;20198;-79
2021/08/24 02:26:11;;;;;;;5.47;3.07;;;13.60;99.90;;;;;;4996503;28;20203;-80
2021/08/24 02:28:39;;;;;;;4.53;3.13;;;13.60;99.90;;;;;;4996249;28;20200;-79
2021/08/24 02:31:11;;;;;;;3.87;3.23;;;13.60;99.90;;;;;;4996902;28;20175;-79
2021/08/24 02:33:44;;;;;;;4.13;3.33;;;13.50;99.90;;;;;;4996439;28;20246;-79
2021/08/24 02:36:11;;;;;;;4.30;3.37;;;13.60;99.90;;;;;;4981427;28;20199;-79
2021/08/24 02:38:37;;;;;;;4.60;3.20;;;13.50;99.90;;;;;;4980264;28;20229;-79
2021/08/24 02:41:20;;;;;;;4.43;3.30;;;13.50;99.90;;;;;;4996245;28;20183;-79
2021/08/24 02:44:14;;;;;;;4.63;3.33;;;13.50;99.90;;;;;;4981461;28;20183;-79
2021/08/24 02:46:42;;;;;;;5.27;3.60;;;13.40;99.90;;;;;;5013301;28;20207;-79
2021/08/24 02:49:28;;;;;;;4.23;3.37;;;13.50;99.90;;;;;;4995936;28;20215;-79
2021/08/24 02:51:54;;;;;;;4.87;3.30;;;13.50;99.90;;;;;;4996740;28;20263;-79
2021/08/24 02:54:26;;;;;;;4.57;3.07;;;13.40;99.90;;;;;;4980105;28;20183;-79
2021/08/24 02:56:52;;;;;;;4.07;3.20;;;13.40;99.90;;;;;;4980514;28;20214;-79
2021/08/24 02:59:17;;;;;;;4.60;3.20;;;13.30;99.90;;;;;;4979761;28;20231;-80
2021/08/24 03:01:43;;;;;;;3.67;3.00;;;13.30;99.90;;;;;;4995945;28;20182;-79
2021/08/24 03:04:09;;;;;;;4.73;3.50;;;13.30;99.90;;;;;;4996696;28;20570;-79
2021/08/24 03:06:37;;;;;;;4.50;3.37;;;13.30;99.90;;;;;;4980178;28;20207;-79
2021/08/24 03:09:02;;;;;;;5.33;3.10;;;13.30;99.90;;;;;;4979669;28;20623;-80
2021/08/24 03:11:29;;;;;;;4.70;3.07;;;13.30;99.90;;;;;;4996355;28;20275;-79
2021/08/24 03:13:55;;;;;;;4.63;3.43;;;13.30;99.90;;;;;;4996115;28;20176;-79
2021/08/24 03:16:51;;;;;;;5.37;3.60;;;13.20;99.90;;;;;;5014355;28;20253;-79
2021/08/24 03:19:19;;;;;;;4.10;3.40;;;13.20;99.90;;;;;;5014463;28;20231;-79
2021/08/24 03:21:44;;;;;;;5.50;3.90;;;13.20;99.90;;;;;;4983442;28;20183;-79
2021/08/24 03:24:12;;;;;;;5.50;3.37;;;13.20;99.90;;;;;;4999740;28;20226;-79
2021/08/24 03:26:39;;;;;;;6.00;3.67;;;13.20;99.90;;;;;;4999533;28;20195;-79
2021/08/24 03:29:08;;;;;;;4.13;3.20;;;13.20;99.90;;;;;;4983043;28;20761;-79
2021/08/24 03:31:34;;;;;;;5.07;3.70;;;13.10;99.90;;;;;;4999714;28;20194;-79
2021/08/24 03:34:00;;;;;;;4.30;3.37;;;13.10;99.90;;;;;;4983161;28;20180;-79
2021/08/24 03:36:25;;;;;;;5.13;3.47;;;13.10;99.90;;;;;;4986432;28;20191;-79
2021/08/24 03:38:51;;;;;;;4.53;3.10;;;13.10;99.90;;;;;;4983569;28;20207;-79
2021/08/24 03:41:16;;;;;;;4.93;3.83;;;13.10;99.90;;;;;;4983160;28;20180;-79
2021/08/24 03:43:42;;;;;;;4.17;3.27;;;13.10;99.90;;;;;;4983255;28;20186;-79
2021/08/24 03:46:07;;;;;;;3.50;3.03;;;13.10;99.90;;;;;;4999271;28;20183;-79
2021/08/24 03:48:33;;;;;;;5.37;3.37;;;13.10;99.90;;;;;;4982896;28;20663;-80
2021/08/24 03:50:58;;;;;;;4.87;3.30;;;13.00;99.90;;;;;;4998949;28;20635;-79
2021/08/24 03:53:24;;;;;;;3.47;3.00;;;13.10;99.90;;;;;;4999395;28;20236;-79
2021/08/24 03:55:50;;;;;;;4.17;3.63;;;13.00;99.90;;;;;;4983072;28;20183;-79
2021/08/24 03:58:15;;;;;;;5.43;3.50;;;13.00;99.90;;;;;;5015466;28;20226;-79
2021/08/24 04:00:44;;;;;;;4.60;3.60;;;13.00;99.90;;;;;;4982247;28;20600;-79
2021/08/24 04:03:10;;;;;;;6.83;3.70;;;12.90;99.90;;;;;;4982588;28;20190;-79
2021/08/24 04:05:35;;;;;;;3.83;3.43;;;12.90;99.90;;;;;;4982300;28;20180;-79
2021/08/24 04:08:01;;;;;;;4.77;3.60;;;12.90;99.90;;;;;;4999097;28;20219;-79
2021/08/24 04:10:26;;;;;;;4.40;3.77;;;12.90;99.90;;;;;;4982069;28;20175;-79
2021/08/24 04:12:52;;;;;;;4.60;3.77;;;12.90;99.90;;;;;;4998698;28;20176;-79
2021/08/24 04:15:17;;;;;;;8.10;4.00;;;12.90;99.90;;;;;;4998634;28;20270;-79
2021/08/24 04:17:43;;;;;;;4.63;3.67;;;12.80;99.90;;;;;;4981943;28;20242;-79
2021/08/24 04:20:10;;;;;;;4.83;3.90;;;12.80;99.90;;;;;;4982244;28;20274;-79
2021/08/24 04:22:38;;;;;;;6.57;3.80;;;12.80;99.90;;;;;;4999213;28;20218;-79
2021/08/24 04:25:04;;;;;;;4.50;3.57;;;12.80;99.90;;;;;;4982284;28;20660;-79
2021/08/24 04:27:30;;;;;;;5.77;3.90;;;12.80;99.90;;;;;;4981696;28;20221;-79
2021/08/24 04:29:55;;;;;;;5.53;3.93;;;12.70;99.90;;;;;;4997969;28;20175;-79
2021/08/24 04:32:26;;;;;;;4.67;3.43;;;12.70;99.90;;;;;;4981865;28;20187;-79
2021/08/24 04:34:52;;;;;;;5.00;3.53;;;12.70;99.90;;;;;;4982259;28;20202;-79
2021/08/24 04:37:18;;;;;;;4.40;3.53;;;12.70;99.90;;;;;;4997945;28;20183;-79
2021/08/24 04:39:43;;;;;;;5.23;3.60;;;12.80;99.90;;;;;;4981459;28;20770;-79
2021/08/24 04:42:09;;;;;;;4.77;3.70;;;12.70;99.90;;;;;;4997699;28;20176;-79
2021/08/24 04:44:34;;;;;;;6.63;4.33;;;12.70;99.90;;;;;;4997580;28;20266;-79
2021/08/24 04:47:00;;;;;;;4.97;3.77;;;12.70;99.90;;;;;;4998101;28;20203;-79
2021/08/24 04:49:25;;;;;;;5.63;4.13;;;12.70;99.90;;;;;;4996896;28;20187;-79
2021/08/24 04:51:51;;;;;;;5.40;4.37;;;12.70;99.90;;;;;;5016450;28;20194;-80
2021/08/24 04:54:17;;;;;;;6.30;4.23;;;12.70;99.90;;;;;;5017009;28;20197;-79
2021/08/24 04:56:43;;;;;;;5.43;4.13;;;12.70;99.90;;;;;;5034452;28;20179;-79
2021/08/24 04:59:09;;;;;;;5.30;4.27;;;12.80;99.90;;;;;;5016111;28;20257;-79
2021/08/24 05:01:34;;;;;;;7.77;4.50;;;12.80;99.90;;;;;;5016821;28;20245;-79
2021/08/24 05:04:00;;;;;;;6.00;4.33;;;12.90;99.90;;;;;;5016294;28;20200;-79
2021/08/24 05:06:25;;;;;;;5.97;4.50;;;12.90;99.90;;;;;;5016522;28;20580;-78
2021/08/24 05:08:51;;;;;;;7.40;4.67;;;12.90;99.90;;;;;;5032367;28;20580;-77
2021/08/24 05:11:16;;;;;;;5.67;4.70;;;12.90;99.90;;;;;;5032457;28;20650;-78
2021/08/24 05:13:42;;;;;;;7.73;4.53;;;13.00;99.90;;;;;;5032173;28;20171;-77
2021/08/24 05:16:08;;;;;;;5.00;4.47;;;13.00;99.90;;;;;;5019739;28;20179;-76
2021/08/24 05:18:35;;;;;;;6.67;4.57;;;13.00;99.90;;;;;;5023800;28;20816;-76
2021/08/24 05:21:04;;;;;;;6.67;4.87;;;13.00;99.90;;;;;;5006177;28;20175;-78
2021/08/24 05:23:31;;;;;;;6.07;4.53;;;13.10;99.90;;;;;;4994801;28;20176;-77
2021/08/24 05:25:57;;;;;;;7.93;4.93;;;13.10;99.90;;;;;;5012682;28;20171;-77
2021/08/24 05:28:22;;;;;;;6.10;4.73;;;13.20;99.90;;;;;;5012594;28;20200;-77
2021/08/24 05:30:48;;;;;;;6.43;4.60;;;13.30;99.90;;;;;;4996527;28;20282;-77
2021/08/24 05:33:13;;;;;;;6.70;5.50;;;13.40;99.90;;;;;;5013663;28;20180;-77
2021/08/24 05:35:39;;;;;;;6.97;5.20;;;13.40;99.90;;;;;;4996630;28;20180;-76
2021/08/24 05:38:04;;;;;;;6.47;4.77;;;13.50;99.90;;;;;;5011769;28;20227;-77
2021/08/24 05:40:30;;;;;;;7.27;5.00;;;13.60;99.90;;;;;;4996004;28;20186;-77
2021/08/24 05:42:55;;;;;;;6.43;5.07;;;13.70;99.90;;;;;;4996168;28;20184;-77
2021/08/24 05:45:21;;;;;;;6.37;4.70;;;13.90;99.90;;;;;;4995929;28;20180;-77
2021/08/24 05:47:46;;;;;;;6.63;4.60;;;14.00;99.90;;;;;;5012256;28;20505;-77
2021/08/24 05:50:12;;;;;;;8.47;4.70;;;14.00;99.90;;;;;;4998574;28;20557;-77
2021/08/24 05:52:38;;;;;;;6.40;4.73;;;14.10;99.90;;;;;;5032720;28;20571;-77
2021/08/24 05:55:04;;;;;;;6.00;4.53;;;14.30;99.90;;;;;;5031930;28;20187;-77
2021/08/24 05:57:29;;;;;;;6.63;4.60;;;14.50;99.90;;;;;;5015068;28;20202;-77
2021/08/24 05:59:55;;;;;;;7.30;4.30;;;14.70;99.90;;;;;;5015454;28;20186;-77
2021/08/24 06:02:20;;;;;;;6.80;4.63;;;15.00;99.90;;;;;;5015749;28;20179;-77
2021/08/24 06:04:46;;;;;;;5.50;4.27;;;15.20;99.90;;;;;;5031981;28;20178;-77
2021/08/24 06:07:12;;;;;;;6.30;4.27;;;15.30;99.90;;;;;;5015608;28;20207;-78
2021/08/24 06:09:37;;;;;;;5.53;4.53;;;15.40;99.90;;;;;;5014132;28;20179;-77
2021/08/24 06:12:03;;;;;;;6.33;4.60;;;15.60;99.90;;;;;;5034123;28;20186;-77
2021/08/24 06:14:28;;;;;;;6.37;4.27;;;15.60;99.90;;;;;;5038467;28;20182;-79
2021/08/24 06:16:56;;;;;;;7.07;4.07;;;15.80;99.90;;;;;;5033756;28;20183;-78
2021/08/24 06:19:22;;;;;;;5.30;3.77;;;16.10;99.90;;;;;;5032748;28;20215;-77
2021/08/24 06:21:47;;;;;;;5.70;4.20;;;16.30;99.90;;;;;;5027219;28;20245;-77
2021/08/24 06:24:13;;;;;;;8.57;3.77;;;16.30;99.90;;;;;;5008218;28;20600;-77
2021/08/24 06:26:39;;;;;;;5.37;3.70;;;16.70;99.90;;;;;;5018130;28;20286;-77
2021/08/24 06:29:04;;;;;;;4.33;3.63;;;17.00;99.90;;;;;;5018321;28;20206;-78
2021/08/24 06:31:30;;;;;;;4.73;3.30;;;17.00;99.90;;;;;;5015142;28;20179;-78
2021/08/24 06:33:56;;;;;;;6.20;3.33;;;17.30;99.90;;;;;;5015086;28;20220;-77
2021/08/24 06:36:21;;;;;;;4.90;3.53;;;17.50;99.90;;;;;;5015487;28;20170;-78
2021/08/24 06:38:47;;;;;;;3.70;3.03;;;17.60;99.90;;;;;;5003412;28;20294;-80
2021/08/24 06:41:13;;;;;;;6.00;3.47;;;17.60;99.90;;;;;;4997928;28;20186;-76
2021/08/24 06:43:38;;;;;;;4.50;3.20;;;17.70;99.90;;;;;;5019652;28;20187;-74
2021/08/24 06:46:04;;;;;;;4.43;3.03;;;18.50;99.90;;;;;;5004298;28;20192;-76
2021/08/24 06:48:30;;;;;;;3.93;3.00;;;19.20;99.90;;;;;;5008790;28;20329;-75
2021/08/24 06:50:55;;;;;;;5.00;2.97;;;20.10;99.90;;;;;;5029085;28;20172;-75
2021/08/24 06:53:21;;;;;;;4.30;2.90;;;20.90;99.90;;;;;;4997340;28;20175;-75
2021/08/24 06:55:47;;;;;;;4.63;3.00;;;21.50;99.90;;;;;;5014257;28;20261;-72
2021/08/24 06:58:12;;;;;;;4.03;2.80;;;21.50;99.90;;;;;;5020177;28;20774;-74
2021/08/24 07:00:38;;;;;;;5.07;2.70;;;21.60;99.90;;;;;;5022516;28;20188;-73
2021/08/24 07:03:09;;;;;;;3.60;2.50;;;22.00;99.90;;;;;;5022129;28;20594;-73
2021/08/24 07:05:35;;;;;;;4.47;2.60;;;22.20;99.90;;;;;;5020036;28;20206;-74
2021/08/24 07:08:01;;;;;;;2.83;2.20;;;22.20;99.90;;;;;;5023272;28;20689;-74
2021/08/24 07:10:26;;;;;;;3.67;2.33;;;22.20;99.90;;;;;;5024764;28;20282;-74
2021/08/24 07:12:52;;;;;;;3.60;2.27;;;21.80;99.90;;;;;;5020142;28;20602;-74
2021/08/24 07:15:19;;;;;;;3.90;2.37;;;21.90;99.90;;;;;;5015704;28;20604;-79
2021/08/24 07:17:45;;;;;;;3.60;2.43;;;22.20;99.90;;;;;;5021625;28;20211;-78
2021/08/24 07:20:12;;;;;;;3.13;1.90;;;22.50;99.90;;;;;;5025781;28;20179;-79
2021/08/24 07:22:38;;;;;;;3.93;2.23;;;22.60;99.90;;;;;;5008005;28;20175;-79
2021/08/24 07:25:05;;;;;;;2.83;2.37;;;22.90;99.90;;;;;;5007937;28;20178;-80
2021/08/24 07:27:30;;;;;;;2.93;2.00;;;23.50;99.90;;;;;;5013647;28;20210;-78
2021/08/24 07:29:56;;;;;;;3.67;1.90;;;23.30;99.90;;;;;;5017581;28;20669;-78
2021/08/24 07:32:22;;;;;;;3.30;2.00;;;22.70;99.90;;;;;;5034440;28;20175;-79
2021/08/24 07:34:47;;;;;;;3.07;1.90;;;21.90;99.90;;;;;;5018411;28;20198;-79
2021/08/24 07:37:13;;;;;;;3.20;1.77;;;21.30;99.90;;;;;;5015287;28;20659;-79
2021/08/24 07:39:38;;;;;;;4.93;2.00;;;21.00;99.90;;;;;;5033929;28;20179;-75
2021/08/24 07:42:04;;;;;;;3.57;2.00;;;20.70;99.90;;;;;;5017636;28;20179;-75
2021/08/24 07:44:33;;;;;;;3.27;2.00;;;20.60;99.90;;;;;;5033781;28;20179;-74
2021/08/24 07:46:59;;;;;;;3.00;2.00;;;20.30;99.90;;;;;;5033895;28;20222;-74
2021/08/24 07:49:24;;;;;;;2.97;2.27;;;20.10;99.90;;;;;;5033540;28;20202;-74
2021/08/24 07:51:50;;;;;;;6.57;2.00;;;19.80;99.90;;;;;;5033484;28;20229;-74
2021/08/24 07:54:15;;;;;;;5.20;2.37;;;19.70;99.90;;;;;;5033560;28;20175;-74
2021/08/24 07:56:41;;;;;;;3.13;1.90;;;19.70;99.90;;;;;;5033629;28;20181;-74
2021/08/24 07:59:07;;;;;;;2.53;1.77;;;19.80;99.90;;;;;;5033246;28;20274;-74
2021/08/24 08:01:32;;;;;;;3.63;1.80;;;19.90;99.90;;;;;;5032670;28;20205;-74
2021/08/24 08:03:58;;;;;;;2.73;1.90;;;19.90;99.90;;;;;;5033492;28;20187;-74
2021/08/24 08:06:23;;;;;;;3.60;1.70;;;19.90;99.90;;;;;;5033387;28;20209;-74
2021/08/24 08:08:49;;;;;;;3.30;1.80;;;19.90;99.90;;;;;;5016197;28;20202;-74
2021/08/24 08:11:14;;;;;;;2.60;1.87;;;19.70;99.90;;;;;;5016805;28;20224;-74
2021/08/24 08:13:40;;;;;;;2.87;1.40;;;20.00;99.90;;;;;;5033431;28;20209;-75
2021/08/24 08:16:06;;;;;;;3.20;1.70;;;20.20;99.90;;;;;;5033304;28;20193;-74
2021/08/24 08:18:32;;;;;;;5.30;1.33;;;20.20;99.90;;;;;;5032982;28;20219;-75
2021/08/24 08:20:57;;;;;;;2.80;1.80;;;20.20;99.90;;;;;;5032724;28;20175;-74
2021/08/24 08:23:23;;;;;;;3.03;1.63;;;20.20;99.90;;;;;;5033143;28;20197;-75
2021/08/24 08:25:48;;;;;;;3.67;1.60;;;20.30;99.90;;;;;;5033465;28;20175;-76
2021/08/24 08:28:14;;;;;;;2.67;1.50;;;20.50;99.90;;;;;;5033055;28;20237;-74
2021/08/24 08:30:43;;;;;;;5.53;3.10;;;20.60;99.90;;;;;;5032791;28;20179;-75
2021/08/24 08:33:09;;;;;;;3.27;1.80;;;20.60;99.90;;;;;;5008330;28;20321;-76
2021/08/24 08:35:35;;;;;;;3.47;1.60;;;20.50;99.90;;;;;;5004548;28;20270;-78
2021/08/24 08:38:00;;;;;;;4.10;1.90;;;20.50;99.90;;;;;;5008840;28;20203;-79
2021/08/24 08:40:38;;;;;;;2.00;1.50;;;20.40;99.90;;;;;;5006852;28;20194;-79
2021/08/24 08:43:22;;;;;;;2.80;1.50;;;20.40;99.90;;;;;;5007677;28;20179;-79
2021/08/24 08:45:49;;;;;;;3.93;1.70;;;20.40;99.90;;;;;;5017450;28;20653;-79
2021/08/24 08:48:17;;;;;;;2.67;1.67;;;20.60;99.90;;;;;;5007103;28;20211;-78
2021/08/24 08:50:51;;;;;;;3.97;1.67;;;20.50;99.90;;;;;;5023991;28;20257;-78
2021/08/24 08:53:37;;;;;;;3.53;1.53;;;20.40;99.90;;;;;;5013022;28;20175;-79
2021/08/24 08:56:09;;;;;;;2.27;1.60;;;20.20;99.90;;;;;;5035079;28;20155;-78
2021/08/24 08:58:38;;;;;;;2.83;1.80;;;20.20;99.90;;;;;;5033742;28;20203;-80
2021/08/24 09:01:22;;;;;;;4.10;2.00;;;20.10;99.90;;;;;;5049991;28;20171;-78
2021/08/24 09:04:11;;;;;;;2.63;1.50;;;20.10;99.90;;;;;;5033519;28;20206;-79
2021/08/24 09:06:37;;;;;;;1.87;1.40;;;20.00;99.90;;;;;;5024289;28;20206;-78
2021/08/24 09:09:03;;;;;;;2.67;1.70;;;20.20;99.90;;;;;;5027776;28;20199;-78
2021/08/24 09:11:31;;;;;;;2.20;1.33;;;20.40;99.90;;;;;;5031238;28;20187;-78
2021/08/24 09:14:03;;;;;;;3.33;2.20;;;20.50;99.90;;;;;;5022814;28;20175;-78
2021/08/24 09:16:31;;;;;;;4.03;2.10;;;20.40;99.90;;;;;;5004677;28;20198;-78
2021/08/24 09:19:19;;;;;;;3.43;1.77;;;20.60;99.90;;;;;;5023683;28;20213;-78
2021/08/24 09:21:45;;;;;;;3.03;1.70;;;20.50;99.90;;;;;;5008101;28;20663;-78
2021/08/24 09:24:28;;;;;;;2.90;1.60;;;20.50;99.90;;;;;;5021811;28;20179;-78
2021/08/24 09:26:59;;;;;;;3.27;1.80;;;20.40;99.90;;;;;;5005310;28;20187;-78
2021/08/24 09:29:45;;;;;;;2.20;1.47;;;20.30;99.90;;;;;;5007459;28;20195;-78
2021/08/24 09:32:11;;;;;;;3.20;1.67;;;20.10;99.90;;;;;;5005645;28;20203;-75
2021/08/24 09:34:41;;;;;;;3.23;1.63;;;20.20;99.90;;;;;;5029802;28;20570;-77
2021/08/24 09:37:07;;;;;;;3.63;1.67;;;20.10;99.90;;;;;;5008888;28;20174;-78
2021/08/24 09:39:52;;;;;;;1.90;1.57;;;20.00;99.90;;;;;;5006241;28;20192;-78
2021/08/24 09:42:31;;;;;;;2.03;1.30;;;20.10;99.90;;;;;;5022820;28;20174;-79
2021/08/24 09:45:21;;;;;;;2.90;1.80;;;20.20;99.90;;;;;;5023626;28;20198;-78
2021/08/24 09:47:57;;;;;;;3.37;1.63;;;20.40;99.90;;;;;;5021634;28;20313;-75
2021/08/24 09:50:43;;;;;;;3.33;1.60;;;20.40;99.90;;;;;;5032050;28;20175;-76
2021/08/24 09:53:30;;;;;;;2.27;1.40;;;20.30;99.90;;;;;;5031394;28;20211;-76
2021/08/24 09:55:56;;;;;;;7.60;2.03;;;20.30;99.90;;;;;;5038381;28;20175;-75
2021/08/24 09:58:40;;;;;;;2.87;1.77;;;20.40;99.90;;;;;;5011650;28;20742;-75
2021/08/24 10:01:07;;;;;;;4.13;2.53;;;20.50;99.90;;;;;;5011541;28;20269;-77
2021/08/24 10:03:37;;;;;;;3.03;1.70;;;20.40;99.90;;;;;;5015543;28;20708;-76
2021/08/24 10:06:26;;;;;;;4.10;1.60;;;20.40;99.90;;;;;;5015135;28;20186;-76
2021/08/24 10:08:55;;;;;;;2.47;1.40;;;20.50;99.90;;;;;;5031746;28;20209;-76
2021/08/24 10:11:34;;;;;;;4.33;1.57;;;20.70;99.90;;;;;;4998101;28;20811;-76
2021/08/24 10:14:11;;;;;;;2.50;1.43;;;20.70;99.90;;;;;;5012379;28;20203;-79
2021/08/24 10:16:39;;;;;;;2.30;1.30;;;20.60;99.90;;;;;;5011518;28;20171;-76
2021/08/24 10:19:09;;;;;;;2.90;1.70;;;20.60;99.90;;;;;;5011601;28;20214;-76
2021/08/24 10:21:39;;;;;;;1.97;1.27;;;20.60;99.90;;;;;;5011495;28;20187;-76
2021/08/24 10:24:04;;;;;;;5.73;1.83;;;20.50;99.90;;;;;;5011164;28;20314;-76
2021/08/24 10:26:34;;;;;;;1.93;1.40;;;20.50;99.90;;;;;;4994939;28;20632;-76
2021/08/24 10:29:18;;;;;;;1.93;1.37;;;20.80;99.90;;;;;;5011208;28;20276;-77
2021/08/24 10:31:54;;;;;;;3.20;1.30;;;20.90;99.90;;;;;;5012892;28;20170;-77
2021/08/24 10:34:39;;;;;;;2.07;1.40;;;20.90;99.90;;;;;;5031394;28;20574;-77
2021/08/24 10:37:23;;;;;;;2.20;1.13;;;20.80;99.90;;;;;;5013708;28;20187;-77
2021/08/24 10:39:48;;;;;;;2.40;1.37;;;20.80;99.90;;;;;;5027450;28;20214;-77
2021/08/24 10:42:24;;;;;;;2.30;1.50;;;20.90;99.90;;;;;;4995275;28;20219;-78
2021/08/24 10:44:52;;;;;;;2.83;1.50;;;20.70;99.90;;;;;;5014844;28;20186;-78
2021/08/24 10:47:20;;;;;;;3.90;1.20;;;20.70;99.90;;;;;;5002698;28;20214;-78
2021/08/24 10:49:45;;;;;;;2.57;1.20;;;20.70;99.90;;;;;;5000789;28;20661;-77
2021/08/24 10:52:13;;;;;;;2.90;1.33;;;20.60;99.90;;;;;;5017785;28;20186;-80
2021/08/24 10:54:48;;;;;;;2.50;1.40;;;20.60;99.90;;;;;;5015933;28;20213;-80
2021/08/24 10:57:38;;;;;;;3.13;1.27;;;20.60;99.90;;;;;;5015579;28;20186;-83
2021/08/24 11:00:12;;;;;;;1.80;1.20;;;20.70;99.90;;;;;;5015648;28;20592;-83
2021/08/24 11:02:40;;;;;;;1.80;1.20;;;20.70;99.90;;;;;;5010579;28;20562;-81
2021/08/24 11:05:27;;;;;;;3.37;1.33;;;20.60;99.90;;;;;;5015272;28;20186;-78
2021/08/24 11:07:52;;;;;;;3.37;1.67;;;20.60;99.90;;;;;;5018066;28;20265;-79
2021/08/24 11:10:39;;;;;;;2.80;1.47;;;20.50;99.90;;;;;;5035210;28;20179;-79
2021/08/24 11:13:12;;;;;;;3.80;1.40;;;20.40;99.90;;;;;;5018541;28;20649;-79
2021/08/24 11:16:02;;;;;;;2.43;1.40;;;20.50;99.90;;;;;;5032942;28;20642;-78
2021/08/24 11:18:50;;;;;;;3.47;1.57;;;20.60;99.90;;;;;;5030814;28;20210;-78
2021/08/24 11:21:40;;;;;;;2.57;1.40;;;20.80;99.90;;;;;;5027871;28;20190;-78
2021/08/24 11:24:19;;;;;;;1.70;1.10;;;20.90;99.90;;;;;;5030853;28;20179;-78
2021/08/24 11:27:09;;;;;;;2.40;1.40;;;21.10;99.90;;;;;;5032814;28;20191;-79
2021/08/24 11:29:57;;;;;;;2.73;1.60;;;21.10;99.90;;;;;;5016225;28;20203;-79
2021/08/24 11:32:35;;;;;;;2.33;1.30;;;21.10;99.90;;;;;;5035160;28;20152;-78
2021/08/24 11:35:17;;;;;;;3.13;1.40;;;21.30;99.90;;;;;;5018789;28;20175;-78
2021/08/24 11:37:51;;;;;;;2.77;1.43;;;21.40;99.90;;;;;;5019398;28;20620;-79
2021/08/24 11:40:53;;;;;;;2.40;1.50;;;21.50;99.90;;;;;;5012720;28;20292;-77
2021/08/24 11:43:37;;;;;;;2.93;1.30;;;21.50;99.90;;;;;;5001453;28;20202;-76
2021/08/24 11:46:07;;;;;;;2.10;1.23;;;21.20;99.90;;;;;;5019215;28;20179;-77
2021/08/24 11:48:40;;;;;;;2.87;1.47;;;21.10;99.90;;;;;;4999082;28;20715;-78
2021/08/24 11:51:10;;;;;;;2.83;1.63;;;21.20;99.90;;;;;;5014657;28;20168;-78
2021/08/24 11:53:48;;;;;;;1.93;1.30;;;21.30;99.90;;;;;;4999572;28;20172;-78
2021/08/24 11:56:29;;;;;;;2.37;1.50;;;21.40;99.90;;;;;;4999261;28;20214;-78
2021/08/24 11:58:55;;;;;;;2.20;1.20;;;21.60;99.90;;;;;;5015085;28;20280;-77
2021/08/24 12:01:22;;;;;;;2.37;1.50;;;21.60;99.90;;;;;;5014477;28;20254;-78
2021/08/24 12:03:51;;;;;;;3.27;1.43;;;21.50;99.90;;;;;;4999948;28;20189;-78
2021/08/24 12:06:30;;;;;;;2.40;1.25;;;21.60;99.90;;;;;;5004713;28;20194;-79
2021/08/24 12:08:56;;;;;;;3.97;1.50;;;21.60;99.90;;;;;;5026651;28;20194;-79
2021/08/24 12:11:24;;;;;;;2.20;1.30;;;21.50;99.90;;;;;;5027031;28;20222;-80
2021/08/24 12:13:53;;;;;;;2.87;1.50;;;21.20;99.90;;;;;;4986227;28;20176;-78
2021/08/24 12:16:25;;;;;;;3.37;1.23;;;21.30;99.90;;;;;;5035784;28;20183;-80
2021/08/24 12:19:16;;;;;;;2.60;1.20;;;21.20;99.90;;;;;;5028546;28;20238;-79
2021/08/24 12:21:49;;;;;;;2.83;1.30;;;21.40;99.90;;;;;;5008227;28;20199;-79
2021/08/24 12:24:24;;;;;;;2.90;1.40;;;21.60;99.90;;;;;;5030875;28;20595;-80
2021/08/24 12:26:55;;;;;;;3.20;1.67;;;21.70;99.90;;;;;;5033775;28;20238;-79
2021/08/24 12:29:36;;;;;;;2.67;1.50;;;21.80;99.90;;;;;;5009882;28;20203;-84
2021/08/24 12:32:13;;;;;;;1.33;1.03;;;21.90;99.90;;;;;;5053874;28;20179;-81
2021/08/24 12:35:08;;;;;;;2.20;1.40;;;21.70;99.90;;;;;;5007950;28;20241;-81
2021/08/24 12:37:33;;;;;;;3.23;1.47;;;21.60;99.90;;;;;;5017194;28;20560;-78
2021/08/24 12:40:11;;;;;;;2.90;1.30;;;21.40;99.90;;;;;;5018521;28;20183;-79
2021/08/24 12:42:41;;;;;;;3.27;1.40;;;21.30;99.90;;;;;;5017161;28;20592;-79
2021/08/24 12:45:10;;;;;;;2.67;1.40;;;21.30;99.90;;;;;;5001434;28;20554;-79
2021/08/24 12:48:05;;;;;;;2.67;1.40;;;21.30;99.90;;;;;;5017181;28;20266;-79
2021/08/24 12:50:56;;;;;;;2.23;1.30;;;21.30;99.90;;;;;;5014560;28;20202;-79
2021/08/24 12:53:43;;;;;;;2.57;1.40;;;21.40;99.90;;;;;;5016015;28;20242;-79
2021/08/24 12:56:09;;;;;;;2.97;1.50;;;21.60;99.90;;;;;;5000057;28;20184;-79
2021/08/24 12:58:45;;;;;;;2.73;1.50;;;21.60;99.90;;;;;;5000079;28;20589;-78
2021/08/24 13:01:25;;;;;;;2.70;1.50;;;21.60;99.90;;;;;;5000126;28;20191;-79
2021/08/24 13:04:20;;;;;;;2.37;1.50;;;21.50;99.90;;;;;;4999586;28;20242;-79
2021/08/24 13:06:46;;;;;;;2.87;1.30;;;21.40;99.90;;;;;;5015939;28;20616;-78